ADDS TAF Data INFO
IDs: Format: Raw Decoded Include METARs

Data at: 1406 UTC 23 Jan 2018

KHTS 231351Z 25011G16KT 10SM OVC060 07/M02 A2978 RMK AO2 SLP084 T00721017

KHTS 231130Z 2312/2412 24006KT P6SM FEW070
  FM231300 24011G17KT P6SM BKN090
  FM231500 24014G23KT P6SM BKN035
  FM231700 25014G26KT P6SM BKN023
  FM240400 26010KT P6SM OVC016